Time;durP1;ratioP1;P1;durP2;ratioP2;P2;SDS_P1;SDS_P2;PMS_P1;PMS_P2;Temp;Humidity;BMP_temperature;BMP_pressure;BME280_temperature;BME280_humidity;BME280_pressure;Samples;Min_cycle;Max_cycle;Signal;HPM_P1;HPM_P2
2023/08/31 00:00:11;;;;;;;2.50;1.90;;;;;;;-128.00;-1.00;-1.00;18889;293;7505839;-30
2023/08/31 00:02:40;;;;;;;1.90;1.60;;;;;;;-128.00;-1.00;-1.00;18503;293;7504337;-32
2023/08/31 00:05:06;;;;;;;3.90;2.70;;;;;;;-128.00;-1.00;-1.00;18479;293;7504537;-35
2023/08/31 00:07:32;;;;;;;3.10;2.50;;;;;;;-128.00;-1.00;-1.00;18479;293;7505931;-35
2023/08/31 00:09:58;;;;;;;3.10;2.50;;;;;;;-128.00;-1.00;-1.00;18492;306;7504932;-35
2023/08/31 00:12:24;;;;;;;3.50;2.30;;;;;;;-128.00;-1.00;-1.00;18505;293;7505939;-35
2023/08/31 00:14:50;;;;;;;1.60;1.30;;;;;;;-128.00;-1.00;-1.00;18522;294;7504582;-35
2023/08/31 00:17:15;;;;;;;4.50;2.10;;;;;;;-128.00;-1.00;-1.00;18502;297;7505299;-31
2023/08/31 00:19:41;;;;;;;2.00;1.30;;;;;;;-128.00;-1.00;-1.00;18491;295;7504721;-31
2023/08/31 00:22:07;;;;;;;1.80;1.60;;;;;;;-128.00;-1.00;-1.00;18479;346;7505190;-32
2023/08/31 00:24:36;;;;;;;5.80;1.90;;;;;;;-128.00;-1.00;-1.00;18492;293;7504980;-32
2023/08/31 00:27:03;;;;;;;2.00;1.60;;;;;;;-128.00;-1.00;-1.00;18484;293;7507123;-33
2023/08/31 00:29:29;;;;;;;1.60;1.50;;;;;;;-128.00;-1.00;-1.00;18501;293;7504647;-31
2023/08/31 00:31:56;;;;;;;2.20;2.10;;;;;;;-128.00;-1.00;-1.00;18462;293;7504977;-35
2023/08/31 00:34:21;;;;;;;3.00;2.20;;;;;;;-128.00;-1.00;-1.00;18491;294;7504608;-34
2023/08/31 00:36:48;;;;;;;2.40;1.90;;;;;;;-128.00;-1.00;-1.00;18470;293;7506124;-35
2023/08/31 01:19:50;;;;;;;4.80;4.30;;;;;;;-99.89;19.20;19723.38;19590;295;8045223;-35
2023/08/31 01:22:42;;;;;;;5.00;4.20;;;;;;;-128.00;-1.00;-1.00;18027;297;7505982;-31
2023/08/31 01:25:09;;;;;;;3.70;3.30;;;;;;;-128.00;-1.00;-1.00;18485;295;7504661;-30
2023/08/31 01:27:38;;;;;;;3.30;3.00;;;;;;;-128.00;-1.00;-1.00;18494;295;7505362;-31
2023/08/31 01:30:04;;;;;;;4.80;4.40;;;;;;;-128.00;-1.00;-1.00;18494;335;7505165;-31
2023/08/31 01:32:31;;;;;;;7.30;4.30;;;;;;;-128.00;-1.00;-1.00;18466;295;7506966;-31
2023/08/31 01:35:01;;;;;;;7.70;4.90;;;;;;;-128.00;-1.00;-1.00;18486;288;7506553;-34
2023/08/31 01:37:40;;;;;;;3.50;3.10;;;;;;;-128.00;-1.00;-1.00;18477;295;7504402;-32
2023/08/31 01:40:13;;;;;;;4.00;3.30;;;;;;;-128.00;-1.00;-1.00;18473;295;7505288;-36
2023/08/31 01:42:39;;;;;;;4.70;3.20;;;;;;;-128.00;-1.00;-1.00;18466;295;7504429;-32
2023/08/31 01:45:05;;;;;;;6.20;3.60;;;;;;;-128.00;-1.00;-1.00;18867;287;7505296;-33
2023/08/31 01:47:31;;;;;;;3.90;3.50;;;;;;;-128.00;-1.00;-1.00;18476;295;7505216;-35
2023/08/31 01:49:56;;;;;;;7.20;3.90;;;;;;;-128.00;-1.00;-1.00;18492;336;7505163;-35
2023/08/31 01:52:22;;;;;;;4.20;3.80;;;;;;;-128.00;-1.00;-1.00;18479;295;7504329;-35
2023/08/31 01:54:48;;;;;;;3.90;3.60;;;;;;;-128.00;-1.00;-1.00;18872;295;7504580;-35
2023/08/31 01:57:14;;;;;;;3.60;2.60;;;;;;;-128.00;-1.00;-1.00;18897;318;7504444;-32
2023/08/31 01:59:40;;;;;;;5.70;4.00;;;;;;;-128.00;-1.00;-1.00;18860;295;7504689;-35
2023/08/31 02:02:07;;;;;;;3.70;3.40;;;;;;;-128.00;-1.00;-1.00;18912;295;7504310;-35
2023/08/31 02:04:33;;;;;;;3.50;3.10;;;;;;;-128.00;-1.00;-1.00;18864;295;7504850;-35
2023/08/31 02:06:59;;;;;;;3.20;2.40;;;;;;;-128.00;-1.00;-1.00;18863;346;7504478;-34
2023/08/31 02:09:26;;;;;;;3.60;2.40;;;;;;;-128.00;-1.00;-1.00;18900;295;7504628;-32
2023/08/31 02:11:52;;;;;;;7.00;3.40;;;;;;;-128.00;-1.00;-1.00;18896;295;7504491;-35
2023/08/31 02:14:19;;;;;;;3.40;3.00;;;;;;;-128.00;-1.00;-1.00;18872;295;7504278;-32
2023/08/31 02:16:45;;;;;;;6.90;3.00;;;;;;;-128.00;-1.00;-1.00;18882;288;7504479;-32
2023/08/31 02:19:11;;;;;;;4.40;3.00;;;;;;;-128.00;-1.00;-1.00;18877;299;7504940;-31
2023/08/31 02:21:38;;;;;;;3.70;3.20;;;;;;;-128.00;-1.00;-1.00;18880;295;7504436;-33
2023/08/31 02:24:04;;;;;;;3.70;1.90;;;;;;;-128.00;-1.00;-1.00;18514;318;7506187;-35
2023/08/31 02:26:30;;;;;;;2.40;2.20;;;;;;;-128.00;-1.00;-1.00;18486;306;7505109;-34
2023/08/31 02:28:55;;;;;;;4.90;3.00;;;;;;;-128.00;-1.00;-1.00;18497;294;7505556;-31
2023/08/31 02:31:21;;;;;;;3.40;2.60;;;;;;;-128.00;-1.00;-1.00;18870;294;7505430;-32
2023/08/31 02:33:48;;;;;;;10.90;3.60;;;;;;;-128.00;-1.00;-1.00;18931;294;7504552;-32
2023/08/31 02:36:14;;;;;;;5.30;3.40;;;;;;;-128.00;-1.00;-1.00;18865;295;7504418;-36
2023/08/31 02:38:40;;;;;;;4.30;3.30;;;;;;;-128.00;-1.00;-1.00;18878;296;7505283;-35
2023/08/31 02:41:06;;;;;;;3.90;3.30;;;;;;;-128.00;-1.00;-1.00;18904;295;7504725;-32
2023/08/31 02:43:32;;;;;;;3.20;2.80;;;;;;;-128.00;-1.00;-1.00;18875;294;7505358;-31
2023/08/31 02:46:03;;;;;;;3.10;2.60;;;;;;;-128.00;-1.00;-1.00;18493;295;7505757;-34
2023/08/31 02:48:29;;;;;;;7.10;3.50;;;;;;;-128.00;-1.00;-1.00;18488;294;7505121;-31
2023/08/31 02:51:00;;;;;;;3.90;3.10;;;;;;;-128.00;-1.00;-1.00;18448;297;7505880;-35
2023/08/31 02:53:29;;;;;;;5.10;2.90;;;;;;;-128.00;-1.00;-1.00;18474;294;7504740;-35
2023/08/31 02:55:56;;;;;;;6.80;4.70;;;;;;;-128.00;-1.00;-1.00;18523;306;7505955;-35
2023/08/31 02:58:22;;;;;;;2.90;2.70;;;;;;;-128.00;-1.00;-1.00;18480;295;7505014;-31
2023/08/31 03:00:48;;;;;;;2.80;2.50;;;;;;;-128.00;-1.00;-1.00;18454;295;7504900;-35
2023/08/31 03:03:15;;;;;;;3.80;3.30;;;;;;;-128.00;-1.00;-1.00;18472;295;7506207;-35
2023/08/31 03:05:41;;;;;;;5.00;4.00;;;;;;;-128.00;-1.00;-1.00;18469;294;7505854;-35
2023/08/31 03:08:06;;;;;;;3.90;3.20;;;;;;;-128.00;-1.00;-1.00;18462;295;7505276;-32
2023/08/31 03:10:32;;;;;;;2.80;2.30;;;;;;;-128.00;-1.00;-1.00;18460;295;7504433;-32
2023/08/31 03:12:58;;;;;;;4.00;3.00;;;;;;;-128.00;-1.00;-1.00;18903;295;7504680;-31
2023/08/31 03:15:24;;;;;;;7.80;3.60;;;;;;;-128.00;-1.00;-1.00;18863;295;7504838;-32
2023/08/31 03:17:50;;;;;;;5.80;3.40;;;;;;;-128.00;-1.00;-1.00;18866;294;7504949;-32
2023/08/31 03:20:17;;;;;;;5.40;3.60;;;;;;;-128.00;-1.00;-1.00;18896;335;7504396;-32
2023/08/31 03:22:43;;;;;;;3.70;2.50;;;;;;;-128.00;-1.00;-1.00;18875;295;7504187;-31
2023/08/31 03:25:09;;;;;;;4.70;2.80;;;;;;;-128.00;-1.00;-1.00;18921;295;7504625;-34
2023/08/31 03:27:35;;;;;;;2.90;2.50;;;;;;;-128.00;-1.00;-1.00;18902;306;7504780;-34
2023/08/31 03:30:03;;;;;;;2.20;1.80;;;;;;;-128.00;-1.00;-1.00;18458;294;7505946;-30
2023/08/31 03:32:28;;;;;;;4.80;3.30;;;;;;;-128.00;-1.00;-1.00;18465;295;7504501;-33
2023/08/31 03:34:54;;;;;;;2.30;2.00;;;;;;;-128.00;-1.00;-1.00;18506;294;7504438;-36
2023/08/31 03:37:21;;;;;;;3.30;2.70;;;;;;;-128.00;-1.00;-1.00;18874;294;7505288;-32
2023/08/31 03:39:48;;;;;;;5.20;3.40;;;;;;;-128.00;-1.00;-1.00;18472;295;7505485;-35
2023/08/31 03:42:13;;;;;;;3.80;2.20;;;;;;;-128.00;-1.00;-1.00;18474;347;7505792;-31
2023/08/31 03:44:39;;;;;;;9.90;3.10;;;;;;;-128.00;-1.00;-1.00;18887;314;7504508;-35
2023/08/31 03:47:06;;;;;;;4.30;3.30;;;;;;;-128.00;-1.00;-1.00;18900;295;7505148;-30
2023/08/31 03:49:33;;;;;;;6.60;3.20;;;;;;;-128.00;-1.00;-1.00;18871;294;7505118;-32
2023/08/31 03:51:59;;;;;;;3.70;3.20;;;;;;;-128.00;-1.00;-1.00;18513;310;7506869;-31
2023/08/31 03:54:24;;;;;;;2.30;2.10;;;;;;;-128.00;-1.00;-1.00;18471;295;7506208;-35
2023/08/31 03:56:50;;;;;;;3.30;3.00;;;;;;;-128.00;-1.00;-1.00;18463;295;7504716;-35
2023/08/31 03:59:16;;;;;;;3.40;2.80;;;;;;;-128.00;-1.00;-1.00;18899;294;7504555;-30
2023/08/31 04:01:43;;;;;;;7.30;3.30;;;;;;;-128.00;-1.00;-1.00;18866;303;7505377;-32
2023/08/31 04:04:09;;;;;;;5.70;3.90;;;;;;;-128.00;-1.00;-1.00;18884;335;7504469;-31
2023/08/31 04:06:35;;;;;;;4.00;3.40;;;;;;;-128.00;-1.00;-1.00;18872;331;7504535;-31
2023/08/31 04:09:01;;;;;;;4.80;3.50;;;;;;;-128.00;-1.00;-1.00;18942;347;7504323;-35
2023/08/31 04:11:27;;;;;;;4.10;3.60;;;;;;;-128.00;-1.00;-1.00;18848;295;7504863;-35
2023/08/31 04:13:53;;;;;;;4.00;3.40;;;;;;;-128.00;-1.00;-1.00;18886;311;7505430;-32
2023/08/31 04:16:19;;;;;;;3.90;2.80;;;;;;;-128.00;-1.00;-1.00;18905;294;7504757;-31
2023/08/31 04:18:51;;;;;;;3.80;3.00;;;;;;;-128.00;-1.00;-1.00;18878;294;7504127;-35
2023/08/31 04:21:18;;;;;;;5.70;2.40;;;;;;;-128.00;-1.00;-1.00;18482;295;7506229;-31
2023/08/31 04:23:44;;;;;;;3.60;2.10;;;;;;;-128.00;-1.00;-1.00;18491;294;7504959;-32
2023/08/31 04:26:13;;;;;;;3.30;2.90;;;;;;;-128.00;-1.00;-1.00;18479;294;7505747;-34
2023/08/31 04:28:40;;;;;;;2.80;2.50;;;;;;;-128.00;-1.00;-1.00;18464;295;7504353;-31
2023/08/31 04:31:07;;;;;;;3.70;3.20;;;;;;;-128.00;-1.00;-1.00;18484;294;7504596;-36
2023/08/31 04:33:34;;;;;;;5.00;3.70;;;;;;;-128.00;-1.00;-1.00;18451;299;7505317;-31
2023/08/31 04:35:59;;;;;;;3.70;2.60;;;;;;;-128.00;-1.00;-1.00;18508;294;7504731;-34
2023/08/31 04:38:25;;;;;;;3.20;2.30;;;;;;;-128.00;-1.00;-1.00;18464;284;7504315;-35
2023/08/31 04:40:51;;;;;;;4.30;3.00;;;;;;;-128.00;-1.00;-1.00;18456;295;7506021;-35
2023/08/31 04:43:17;;;;;;;4.50;3.20;;;;;;;-128.00;-1.00;-1.00;18857;318;7504425;-31
2023/08/31 04:45:43;;;;;;;6.30;3.50;;;;;;;-128.00;-1.00;-1.00;18904;283;7504265;-31
2023/08/31 04:48:09;;;;;;;4.00;3.60;;;;;;;-128.00;-1.00;-1.00;18858;314;7505433;-31
2023/08/31 04:50:35;;;;;;;4.50;3.80;;;;;;;-128.00;-1.00;-1.00;18872;295;7505193;-31
2023/08/31 04:53:01;;;;;;;7.30;3.10;;;;;;;-128.00;-1.00;-1.00;18912;295;7504428;-35
2023/08/31 04:55:27;;;;;;;3.70;3.20;;;;;;;-128.00;-1.00;-1.00;18863;294;7504507;-32
2023/08/31 04:57:54;;;;;;;3.90;3.10;;;;;;;-128.00;-1.00;-1.00;18881;288;7505970;-36
2023/08/31 05:00:20;;;;;;;4.20;3.70;;;;;;;-128.00;-1.00;-1.00;18899;295;7505072;-32
2023/08/31 05:02:46;;;;;;;7.20;4.40;;;;;;;-128.00;-1.00;-1.00;18487;295;7504285;-32
2023/08/31 05:05:13;;;;;;;5.60;2.80;;;;;;;-128.00;-1.00;-1.00;18918;294;7504642;-33
2023/08/31 05:07:38;;;;;;;4.60;3.00;;;;;;;-128.00;-1.00;-1.00;18458;294;7504542;-35
2023/08/31 05:10:06;;;;;;;5.40;3.20;;;;;;;-128.00;-1.00;-1.00;18862;295;7504876;-31
2023/08/31 05:12:31;;;;;;;5.00;3.90;;;;;;;-128.00;-1.00;-1.00;18495;346;7506761;-31
2023/08/31 05:14:57;;;;;;;4.10;3.10;;;;;;;-128.00;-1.00;-1.00;18878;295;7504718;-31
2023/08/31 05:17:23;;;;;;;4.20;3.40;;;;;;;-128.00;-1.00;-1.00;18886;296;7504969;-32
2023/08/31 05:19:50;;;;;;;5.20;4.00;;;;;;;-128.00;-1.00;-1.00;18893;295;7504419;-31
2023/08/31 05:22:16;;;;;;;3.80;2.40;;;;;;;-128.00;-1.00;-1.00;18451;295;7505965;-37
2023/08/31 05:24:42;;;;;;;3.30;2.80;;;;;;;-128.00;-1.00;-1.00;18885;295;7504587;-35
2023/08/31 05:27:08;;;;;;;6.90;3.40;;;;;;;-128.00;-1.00;-1.00;18889;294;7504973;-33
2023/08/31 05:29:34;;;;;;;5.30;3.40;;;;;;;-128.00;-1.00;-1.00;18899;311;7504076;-35
2023/08/31 05:32:00;;;;;;;4.50;3.30;;;;;;;-128.00;-1.00;-1.00;18865;295;7504197;-35
2023/08/31 05:34:26;;;;;;;12.20;4.40;;;;;;;-128.00;-1.00;-1.00;18862;335;7504866;-32
2023/08/31 05:36:53;;;;;;;6.10;4.00;;;;;;;-128.00;-1.00;-1.00;18884;295;7505661;-33
2023/08/31 05:39:19;;;;;;;5.60;3.00;;;;;;;-128.00;-1.00;-1.00;18903;294;7504189;-34
2023/08/31 05:41:45;;;;;;;5.00;3.70;;;;;;;-128.00;-1.00;-1.00;18875;347;7504364;-31
2023/08/31 05:44:11;;;;;;;4.00;3.10;;;;;;;-128.00;-1.00;-1.00;18851;347;7505284;-31
2023/08/31 05:46:39;;;;;;;5.00;3.90;;;;;;;-128.00;-1.00;-1.00;18876;295;7504925;-35
2023/08/31 05:49:04;;;;;;;5.40;3.80;;;;;;;-128.00;-1.00;-1.00;18465;288;7506280;-31
2023/08/31 05:51:31;;;;;;;6.50;4.50;;;;;;;-128.00;-1.00;-1.00;18912;294;7505317;-33
2023/08/31 05:53:57;;;;;;;8.20;5.00;;;;;;;-128.00;-1.00;-1.00;18877;331;7505456;-31
2023/08/31 05:56:23;;;;;;;4.30;3.40;;;;;;;-128.00;-1.00;-1.00;18894;294;7506383;-35
2023/08/31 05:58:50;;;;;;;5.20;3.60;;;;;;;-128.00;-1.00;-1.00;18860;288;7504446;-31
2023/08/31 06:01:15;;;;;;;4.80;4.30;;;;;;;-128.00;-1.00;-1.00;18487;318;7504385;-32
2023/08/31 06:03:42;;;;;;;5.20;4.50;;;;;;;-128.00;-1.00;-1.00;18869;295;7504365;-32
2023/08/31 06:06:08;;;;;;;5.80;4.10;;;;;;;-128.00;-1.00;-1.00;18929;295;7504781;-35
2023/08/31 06:08:34;;;;;;;9.80;4.70;;;;;;;-128.00;-1.00;-1.00;18869;294;7504317;-36
2023/08/31 06:11:01;;;;;;;3.20;2.90;;;;;;;-128.00;-1.00;-1.00;18459;295;7504507;-32
2023/08/31 06:13:27;;;;;;;12.70;3.70;;;;;;;-128.00;-1.00;-1.00;18448;335;7504766;-36
2023/08/31 06:15:55;;;;;;;4.20;2.70;;;;;;;-128.00;-1.00;-1.00;18474;296;7506206;-32
2023/08/31 06:18:21;;;;;;;2.90;2.60;;;;;;;-128.00;-1.00;-1.00;18456;288;7504991;-31
2023/08/31 06:20:49;;;;;;;2.90;2.60;;;;;;;-128.00;-1.00;-1.00;18502;296;7504628;-32
2023/08/31 06:23:14;;;;;;;7.60;3.30;;;;;;;-128.00;-1.00;-1.00;18477;339;7504146;-32
2023/08/31 06:25:40;;;;;;;5.00;3.70;;;;;;;-128.00;-1.00;-1.00;18463;295;7504116;-36
2023/08/31 06:28:08;;;;;;;3.80;2.70;;;;;;;-128.00;-1.00;-1.00;18908;295;7504725;-32
2023/08/31 06:30:34;;;;;;;3.10;2.30;;;;;;;-128.00;-1.00;-1.00;18457;347;7504333;-36
2023/08/31 06:33:00;;;;;;;3.80;3.00;;;;;;;-128.00;-1.00;-1.00;18471;335;7504860;-36
2023/08/31 06:35:26;;;;;;;3.70;3.10;;;;;;;-128.00;-1.00;-1.00;18462;295;7505696;-32
2023/08/31 06:37:51;;;;;;;1.80;1.60;;;;;;;-128.00;-1.00;-1.00;18464;295;7504856;-36
2023/08/31 06:40:18;;;;;;;4.40;3.50;;;;;;;-128.00;-1.00;-1.00;18874;303;7504697;-32
2023/08/31 06:42:44;;;;;;;5.50;2.60;;;;;;;-128.00;-1.00;-1.00;18882;296;7504663;-34
2023/08/31 06:45:10;;;;;;;7.40;2.50;;;;;;;-128.00;-1.00;-1.00;18895;294;7504524;-32
2023/08/31 06:47:37;;;;;;;3.80;2.60;;;;;;;-128.00;-1.00;-1.00;18899;295;7504867;-32
2023/08/31 06:50:03;;;;;;;2.80;2.30;;;;;;;-128.00;-1.00;-1.00;18863;299;7506043;-31
2023/08/31 06:52:29;;;;;;;9.10;2.60;;;;;;;-128.00;-1.00;-1.00;18478;346;7504152;-34
2023/08/31 06:54:56;;;;;;;2.70;2.50;;;;;;;-128.00;-1.00;-1.00;18485;320;7506201;-32
2023/08/31 06:57:23;;;;;;;5.60;3.10;;;;;;;-128.00;-1.00;-1.00;18491;294;7504685;-36
2023/08/31 06:59:49;;;;;;;2.20;1.50;;;;;;;-128.00;-1.00;-1.00;18448;297;7504450;-36
2023/08/31 07:02:15;;;;;;;4.00;3.10;;;;;;;-128.00;-1.00;-1.00;18856;295;7505095;-36
2023/08/31 07:04:41;;;;;;;2.90;2.20;;;;;;;-128.00;-1.00;-1.00;18877;296;7504484;-36
2023/08/31 07:07:08;;;;;;;4.20;2.50;;;;;;;-128.00;-1.00;-1.00;18871;294;7504928;-32
2023/08/31 07:09:34;;;;;;;4.60;2.40;;;;;;;-128.00;-1.00;-1.00;18470;288;7506120;-36
2023/08/31 07:12:04;;;;;;;2.70;2.30;;;;;;;-128.00;-1.00;-1.00;18480;295;7505581;-36
2023/08/31 07:14:29;;;;;;;1.70;1.60;;;;;;;-128.00;-1.00;-1.00;18476;287;7506155;-35
2023/08/31 07:16:58;;;;;;;2.80;2.40;;;;;;;-128.00;-1.00;-1.00;18887;295;7504547;-35
2023/08/31 07:19:24;;;;;;;5.70;2.40;;;;;;;-128.00;-1.00;-1.00;18463;297;7505131;-35
2023/08/31 07:21:50;;;;;;;9.80;3.00;;;;;;;-128.00;-1.00;-1.00;18482;294;7505577;-32
2023/08/31 07:24:16;;;;;;;2.90;2.30;;;;;;;-128.00;-1.00;-1.00;18881;294;7504526;-37
2023/08/31 07:26:42;;;;;;;3.00;2.00;;;;;;;-128.00;-1.00;-1.00;18890;339;7504276;-34
2023/08/31 07:29:08;;;;;;;2.40;1.70;;;;;;;-128.00;-1.00;-1.00;18884;294;7504346;-33
2023/08/31 07:31:35;;;;;;;2.00;1.60;;;;;;;-128.00;-1.00;-1.00;18858;347;7504470;-34
2023/08/31 07:34:01;;;;;;;2.10;1.80;;;;;;;-128.00;-1.00;-1.00;18866;347;7506054;-32
2023/08/31 07:36:27;;;;;;;2.40;1.80;;;;;;;-128.00;-1.00;-1.00;18875;295;7504278;-33
2023/08/31 07:38:54;;;;;;;18.40;2.30;;;;;;;-128.00;-1.00;-1.00;18888;295;7504627;-36
2023/08/31 07:41:19;;;;;;;2.20;1.80;;;;;;;-128.00;-1.00;-1.00;18487;312;7504297;-33
2023/08/31 07:43:45;;;;;;;2.20;2.00;;;;;;;-128.00;-1.00;-1.00;18514;294;7504963;-36
2023/08/31 07:46:10;;;;;;;2.50;2.20;;;;;;;-128.00;-1.00;-1.00;18490;295;7504306;-32
2023/08/31 07:48:36;;;;;;;2.70;2.30;;;;;;;-128.00;-1.00;-1.00;18862;295;7504911;-33
2023/08/31 07:51:03;;;;;;;2.20;2.00;;;;;;;-128.00;-1.00;-1.00;18872;294;7504404;-37
2023/08/31 07:53:29;;;;;;;6.10;1.70;;;;;;;-128.00;-1.00;-1.00;18869;321;7504725;-32
2023/08/31 07:55:56;;;;;;;8.90;2.20;;;;;;;-128.00;-1.00;-1.00;18866;295;7504132;-35
2023/08/31 07:58:22;;;;;;;2.70;1.90;;;;;;;-128.00;-1.00;-1.00;18466;288;7504362;-32
2023/08/31 08:00:48;;;;;;;2.20;1.50;;;;;;;-128.00;-1.00;-1.00;18462;295;7505961;-32
2023/08/31 08:03:15;;;;;;;3.10;1.50;;;;;;;-128.00;-1.00;-1.00;18469;294;7505140;-33
2023/08/31 08:05:41;;;;;;;2.10;1.40;;;;;;;-128.00;-1.00;-1.00;18477;294;7506189;-36
2023/08/31 08:08:07;;;;;;;3.10;2.80;;;;;;;-128.00;-1.00;-1.00;18487;295;7504768;-36
2023/08/31 08:10:33;;;;;;;1.80;1.60;;;;;;;-128.00;-1.00;-1.00;18484;294;7504728;-36
2023/08/31 08:12:58;;;;;;;1.70;1.60;;;;;;;-128.00;-1.00;-1.00;18504;288;7504453;-38
2023/08/31 08:15:24;;;;;;;5.20;3.90;;;;;;;-128.00;-1.00;-1.00;18473;347;7504669;-33
2023/08/31 08:17:50;;;;;;;2.00;1.50;;;;;;;-128.00;-1.00;-1.00;18487;295;7504897;-32
2023/08/31 08:20:16;;;;;;;2.00;1.80;;;;;;;-128.00;-1.00;-1.00;18482;295;7506602;-33
2023/08/31 08:22:41;;;;;;;1.20;1.00;;;;;;;-128.00;-1.00;-1.00;18483;294;7506061;-33
2023/08/31 08:25:07;;;;;;;4.40;0.90;;;;;;;-128.00;-1.00;-1.00;18467;307;7505335;-33
2023/08/31 08:27:33;;;;;;;2.50;2.20;;;;;;;-128.00;-1.00;-1.00;18471;306;7504327;-36
2023/08/31 08:29:59;;;;;;;4.30;1.80;;;;;;;-128.00;-1.00;-1.00;18869;347;7506911;-33
2023/08/31 08:32:25;;;;;;;2.60;1.20;;;;;;;-128.00;-1.00;-1.00;18890;296;7504400;-33
2023/08/31 08:34:51;;;;;;;1.70;1.20;;;;;;;-128.00;-1.00;-1.00;18868;306;7505509;-35
2023/08/31 08:37:19;;;;;;;1.90;1.70;;;;;;;-128.00;-1.00;-1.00;18863;295;7504853;-32
2023/08/31 08:39:48;;;;;;;10.90;3.20;;;;;;;-128.00;-1.00;-1.00;18479;295;7505029;-35
2023/08/31 08:42:14;;;;;;;5.20;2.90;;;;;;;-128.00;-1.00;-1.00;18497;296;7504804;-31
2023/08/31 08:44:40;;;;;;;1.00;0.70;;;;;;;-128.00;-1.00;-1.00;18474;348;7504452;-34
2023/08/31 08:47:05;;;;;;;2.50;1.80;;;;;;;-128.00;-1.00;-1.00;18480;295;7504579;-35
2023/08/31 08:49:31;;;;;;;4.90;1.50;;;;;;;-128.00;-1.00;-1.00;18474;295;7506210;-32
2023/08/31 08:51:58;;;;;;;2.40;2.20;;;;;;;-128.00;-1.00;-1.00;18467;347;7504827;-32
2023/08/31 08:54:24;;;;;;;2.00;1.80;;;;;;;-128.00;-1.00;-1.00;18496;294;7504163;-32
2023/08/31 08:56:50;;;;;;;5.80;2.10;;;;;;;-128.00;-1.00;-1.00;18866;295;7504389;-31
2023/08/31 08:59:17;;;;;;;2.30;2.10;;;;;;;-128.00;-1.00;-1.00;18863;294;7505835;-31
2023/08/31 09:01:43;;;;;;;2.70;2.40;;;;;;;-128.00;-1.00;-1.00;18901;295;7504214;-32
2023/08/31 09:04:09;;;;;;;3.20;2.20;;;;;;;-128.00;-1.00;-1.00;18866;294;7504637;-33
2023/08/31 09:06:35;;;;;;;2.40;2.20;;;;;;;-128.00;-1.00;-1.00;18897;294;7505232;-35
2023/08/31 09:09:02;;;;;;;2.70;2.40;;;;;;;-128.00;-1.00;-1.00;18870;288;7504633;-31
2023/08/31 09:11:28;;;;;;;5.10;1.50;;;;;;;-128.00;-1.00;-1.00;18448;306;7505122;-35
2023/08/31 09:13:54;;;;;;;2.60;2.40;;;;;;;-128.00;-1.00;-1.00;18451;331;7504853;-36
2023/08/31 09:16:28;;;;;;;3.10;2.10;;;;;;;-128.00;-1.00;-1.00;18482;296;7504663;-36
2023/08/31 09:18:56;;;;;;;3.10;1.40;;;;;;;-128.00;-1.00;-1.00;18468;295;7505118;-32
2023/08/31 09:21:24;;;;;;;2.60;2.10;;;;;;;-128.00;-1.00;-1.00;18461;294;7505795;-31
2023/08/31 09:23:57;;;;;;;2.10;1.90;;;;;;;-128.00;-1.00;-1.00;17983;288;7506023;-32
2023/08/31 09:26:23;;;;;;;2.10;1.80;;;;;;;-128.00;-1.00;-1.00;18498;294;7504437;-36
2023/08/31 09:28:49;;;;;;;2.40;2.20;;;;;;;-128.00;-1.00;-1.00;18491;299;7504405;-36
2023/08/31 09:31:15;;;;;;;3.60;1.70;;;;;;;-128.00;-1.00;-1.00;18466;295;7504779;-36
2023/08/31 09:33:49;;;;;;;3.90;1.80;;;;;;;-128.00;-1.00;-1.00;18488;295;7504457;-36
2023/08/31 09:36:15;;;;;;;2.50;2.00;;;;;;;-128.00;-1.00;-1.00;18474;295;7506216;-35
2023/08/31 09:38:44;;;;;;;3.00;2.00;;;;;;;-128.00;-1.00;-1.00;18886;295;7505297;-35
2023/08/31 09:41:10;;;;;;;3.00;2.20;;;;;;;-128.00;-1.00;-1.00;18479;339;7505188;-36
2023/08/31 09:43:36;;;;;;;2.20;1.90;;;;;;;-128.00;-1.00;-1.00;18451;294;7504912;-36
2023/08/31 09:46:03;;;;;;;2.00;1.70;;;;;;;-128.00;-1.00;-1.00;18482;295;7505762;-36
2023/08/31 09:48:29;;;;;;;2.80;1.40;;;;;;;-128.00;-1.00;-1.00;18511;294;7504483;-36
2023/08/31 09:50:55;;;;;;;2.30;1.90;;;;;;;-128.00;-1.00;-1.00;18467;294;7506033;-35
2023/08/31 09:53:21;;;;;;;2.60;2.10;;;;;;;-128.00;-1.00;-1.00;18471;295;7504552;-35
2023/08/31 09:55:48;;;;;;;1.60;1.50;;;;;;;-128.00;-1.00;-1.00;18488;295;7504354;-36
2023/08/31 09:58:17;;;;;;;2.20;1.80;;;;;;;-128.00;-1.00;-1.00;18485;295;7504684;-36
2023/08/31 10:00:43;;;;;;;4.50;1.40;;;;;;;-128.00;-1.00;-1.00;18493;295;7504834;-33
2023/08/31 10:03:11;;;;;;;2.30;1.90;;;;;;;-128.00;-1.00;-1.00;18473;295;7504656;-36
2023/08/31 10:05:37;;;;;;;2.10;1.40;;;;;;;-128.00;-1.00;-1.00;18476;294;7504374;-36
2023/08/31 10:08:03;;;;;;;2.00;1.30;;;;;;;-128.00;-1.00;-1.00;18468;294;7504664;-33
2023/08/31 10:10:30;;;;;;;1.80;1.40;;;;;;;-128.00;-1.00;-1.00;18470;295;7504768;-33
2023/08/31 10:12:56;;;;;;;1.90;1.60;;;;;;;-128.00;-1.00;-1.00;18471;288;7504537;-32
2023/08/31 10:15:21;;;;;;;2.10;1.40;;;;;;;-128.00;-1.00;-1.00;18491;295;7504489;-34
2023/08/31 10:17:47;;;;;;;2.10;1.80;;;;;;;-128.00;-1.00;-1.00;18870;288;7504639;-35
2023/08/31 10:20:16;;;;;;;4.50;2.20;;;;;;;-128.00;-1.00;-1.00;18850;320;7504906;-31
2023/08/31 10:22:42;;;;;;;2.20;1.50;;;;;;;-128.00;-1.00;-1.00;18479;295;7504943;-35
2023/08/31 10:25:09;;;;;;;1.60;1.40;;;;;;;-128.00;-1.00;-1.00;18447;295;7504381;-38
2023/08/31 10:27:39;;;;;;;1.10;1.00;;;;;;;-128.00;-1.00;-1.00;18492;335;7507144;-33
2023/08/31 10:30:28;;;;;;;3.40;1.70;;;;;;;-128.00;-1.00;-1.00;18469;294;7505783;-37
2023/08/31 10:33:25;;;;;;;2.00;1.00;;;;;;;-128.00;-1.00;-1.00;18453;295;7506093;-32
2023/08/31 10:35:52;;;;;;;2.30;2.00;;;;;;;-128.00;-1.00;-1.00;18514;294;7504909;-36
2023/08/31 10:38:30;;;;;;;2.20;1.60;;;;;;;-128.00;-1.00;-1.00;18477;347;7504719;-32
2023/08/31 10:41:01;;;;;;;1.40;1.00;;;;;;;-128.00;-1.00;-1.00;18493;295;7506048;-32
2023/08/31 10:43:26;;;;;;;2.70;1.10;;;;;;;-128.00;-1.00;-1.00;18450;296;7504780;-36
2023/08/31 10:45:52;;;;;;;1.00;0.70;;;;;;;-128.00;-1.00;-1.00;18900;295;7505170;-35
2023/08/31 10:48:19;;;;;;;2.60;2.20;;;;;;;-128.00;-1.00;-1.00;18879;288;7505156;-35
2023/08/31 10:50:47;;;;;;;3.90;1.30;;;;;;;-128.00;-1.00;-1.00;18871;295;7504745;-35
2023/08/31 10:53:12;;;;;;;1.10;0.80;;;;;;;-128.00;-1.00;-1.00;18464;306;7504732;-35
2023/08/31 10:55:51;;;;;;;1.20;1.00;;;;;;;-128.00;-1.00;-1.00;18462;296;7505630;-31
2023/08/31 10:58:17;;;;;;;1.60;1.50;;;;;;;-128.00;-1.00;-1.00;18452;294;7504296;-31
2023/08/31 11:00:48;;;;;;;1.90;1.50;;;;;;;-128.00;-1.00;-1.00;18458;295;7505301;-34
2023/08/31 11:03:13;;;;;;;1.30;0.80;;;;;;;-128.00;-1.00;-1.00;18490;303;7505281;-35
2023/08/31 11:05:53;;;;;;;1.90;1.10;;;;;;;-128.00;-1.00;-1.00;18894;295;7505417;-35
2023/08/31 11:08:23;;;;;;;2.50;1.60;;;;;;;-128.00;-1.00;-1.00;18490;295;7504355;-31
2023/08/31 11:10:49;;;;;;;1.20;0.80;;;;;;;-128.00;-1.00;-1.00;18497;296;7504668;-36
2023/08/31 11:13:16;;;;;;;1.90;1.70;;;;;;;-128.00;-1.00;-1.00;18478;288;7506051;-32
2023/08/31 11:15:46;;;;;;;2.20;2.00;;;;;;;-128.00;-1.00;-1.00;18465;294;7504724;-36
2023/08/31 11:18:11;;;;;;;1.50;1.40;;;;;;;-128.00;-1.00;-1.00;18471;339;7504307;-32
2023/08/31 11:20:37;;;;;;;2.40;2.00;;;;;;;-128.00;-1.00;-1.00;18445;343;7505981;-35
2023/08/31 11:23:03;;;;;;;1.80;1.70;;;;;;;-128.00;-1.00;-1.00;18453;295;7507267;-31
2023/08/31 11:25:33;;;;;;;1.30;1.00;;;;;;;-128.00;-1.00;-1.00;18476;294;7505094;-35
2023/08/31 11:27:59;;;;;;;1.30;1.00;;;;;;;-128.00;-1.00;-1.00;18466;295;7506125;-31
2023/08/31 11:30:27;;;;;;;1.70;1.60;;;;;;;-128.00;-1.00;-1.00;18469;296;7504538;-32
2023/08/31 11:32:53;;;;;;;1.70;1.40;;;;;;;-128.00;-1.00;-1.00;18472;295;7504330;-35
2023/08/31 11:35:20;;;;;;;2.10;1.60;;;;;;;-128.00;-1.00;-1.00;18470;312;7504747;-32
2023/08/31 11:37:49;;;;;;;2.40;1.80;;;;;;;-128.00;-1.00;-1.00;18471;339;7504835;-35
2023/08/31 11:40:15;;;;;;;6.80;1.70;;;;;;;-128.00;-1.00;-1.00;18529;294;7505932;-32
2023/08/31 11:42:40;;;;;;;5.60;1.20;;;;;;;-128.00;-1.00;-1.00;18476;295;7506295;-31
2023/08/31 11:45:07;;;;;;;2.00;1.50;;;;;;;-128.00;-1.00;-1.00;18869;295;7504515;-31
2023/08/31 11:47:33;;;;;;;0.90;0.70;;;;;;;-128.00;-1.00;-1.00;18479;294;7504646;-31
2023/08/31 11:49:59;;;;;;;0.90;0.50;;;;;;;-128.00;-1.00;-1.00;18486;295;7505236;-34
2023/08/31 11:52:25;;;;;;;2.30;1.20;;;;;;;-128.00;-1.00;-1.00;18480;284;7506667;-31
2023/08/31 11:54:54;;;;;;;2.50;1.00;;;;;;;-128.00;-1.00;-1.00;18877;295;7504423;-34
2023/08/31 11:57:20;;;;;;;1.30;0.80;;;;;;;-128.00;-1.00;-1.00;18470;318;7504904;-35
2023/08/31 11:59:46;;;;;;;1.20;0.70;;;;;;;-128.00;-1.00;-1.00;18470;295;7504568;-31
2023/08/31 12:02:12;;;;;;;3.20;0.50;;;;;;;-128.00;-1.00;-1.00;18469;295;7504402;-35
2023/08/31 12:04:44;;;;;;;1.40;0.80;;;;;;;-128.00;-1.00;-1.00;18477;346;7505919;-36
2023/08/31 12:07:09;;;;;;;3.10;1.50;;;;;;;-128.00;-1.00;-1.00;18491;296;7504971;-36
2023/08/31 12:09:35;;;;;;;0.50;0.50;;;;;;;-128.00;-1.00;-1.00;18481;339;7504941;-31
2023/08/31 12:12:01;;;;;;;1.00;0.70;;;;;;;-128.00;-1.00;-1.00;18476;294;7506067;-35